首页
METAR-TAF:

METAR-TAF

机场 :

拉塞乌杜尔赫利, 西班牙

纬度: 42-20-29N, 经度: 001-24-17E, 海拔: 802米

当前天气观测

该预报发布于10小时和1分钟前的16:00 UTC
风速6节,风向西南,在西转西南之间变化
温度 15°C
湿度 48%
气压 1023 hPa
能见度10公里或以上
多云层高于5700英尺

METAR: LESU 061600Z 22006KT 190V250 9999 BKN057 15/04 Q1023

时间: 04:01 (02:01 UTC)

预报

该预报发布于12小时和1分钟前的14:00 UTC
预报有效从06日的 15点(UTC)到 07日的 15点(UTC)
风速4节,风向多变
能见度10公里或以上
少量云层高于5000英尺
短暂存在
从 06日的 15点(UTC)到 06日的 18点(UTC)
风速10节,风向南转西南
短暂存在
从 07日的 12点(UTC)到 07日的 15点(UTC)
风速10节,风向南转西南

TAF: LESU 061400Z 0615/0715 VRB04KT 9999 FEW050 TX18/0712Z TN07/0706Z TEMPO 0615/0618 21010KT TEMPO 0712/0715 21010KT

超过4000个机场的气象观测和天气预报(METAR&TAF报告)。

可查询的气象台以黄色和红色小点在地图上表示。

将鼠标移到小点上方,可查看气象台名称。

然后点击查看天气观测和预报。

如需切换地图:点击带黑十字的绿色按钮放大地图;点击带横线的绿色按钮缩小地图;或者点击绿色箭头查看邻近地区的地图。


METAR-TAF: